createdAt,value
2022-09-26T00:00:12.169Z,15.70
2022-09-26T00:02:38.557Z,11.43
2022-09-26T00:05:05.639Z,11.70
2022-09-26T00:07:31.940Z,12.00
2022-09-26T00:09:58.270Z,11.83
2022-09-26T00:12:24.706Z,14.70
2022-09-26T00:14:51.030Z,10.87
2022-09-26T00:17:17.339Z,13.27
2022-09-26T00:19:43.675Z,13.87
2022-09-26T00:22:10.013Z,15.03
2022-09-26T00:24:36.672Z,13.10
2022-09-26T00:27:03.058Z,14.90
2022-09-26T00:29:29.350Z,12.07
2022-09-26T00:31:55.776Z,18.30
2022-09-26T00:34:22.189Z,17.00
2022-09-26T00:36:48.627Z,14.93
2022-09-26T00:39:15.836Z,13.40
2022-09-26T00:41:42.969Z,13.33
2022-09-26T00:44:34.133Z,14.80
2022-09-26T00:47:01.037Z,15.00
2022-09-26T00:49:31.019Z,14.20
2022-09-26T00:52:12.017Z,13.73
2022-09-26T00:54:42.353Z,12.70
2022-09-26T00:57:14.718Z,16.77
2022-09-26T00:59:53.919Z,14.73
2022-09-26T01:02:21.478Z,15.80
2022-09-26T01:04:48.547Z,16.53
2022-09-26T01:07:19.842Z,18.07
2022-09-26T01:09:48.073Z,17.20
2022-09-26T01:12:16.438Z,16.83
2022-09-26T01:14:44.697Z,14.90
2022-09-26T01:17:11.470Z,14.03
2022-09-26T01:20:14.912Z,14.63
2022-09-26T01:22:44.185Z,13.57
2022-09-26T01:25:30.326Z,14.00
2022-09-26T01:28:29.456Z,16.13
2022-09-26T01:31:25.228Z,20.83
2022-09-26T01:34:27.882Z,15.67
2022-09-26T01:37:05.319Z,17.70
2022-09-26T01:39:43.836Z,18.33
2022-09-26T01:42:33.595Z,18.93
2022-09-26T01:45:15.189Z,20.73
2022-09-26T01:48:03.245Z,20.67
2022-09-26T01:50:48.954Z,19.77
2022-09-26T01:53:53.619Z,18.33
2022-09-26T01:56:25.412Z,21.97
2022-09-26T01:58:57.001Z,19.40
2022-09-26T02:01:27.469Z,21.37
2022-09-26T02:03:58.231Z,20.80
2022-09-26T02:06:36.103Z,20.70
2022-09-26T02:09:12.743Z,22.60
2022-09-26T02:11:43.294Z,22.10
2022-09-26T02:14:19.862Z,25.07
2022-09-26T02:16:55.570Z,24.10
2022-09-26T02:19:25.491Z,26.20
2022-09-26T02:21:52.545Z,26.07
2022-09-26T02:24:18.983Z,22.87
2022-09-26T02:26:45.869Z,22.87
2022-09-26T02:29:14.031Z,22.10
2022-09-26T02:31:48.543Z,19.27
2022-09-26T02:34:15.167Z,20.77
2022-09-26T02:36:42.004Z,20.30
2022-09-26T02:39:10.572Z,20.97
2022-09-26T02:41:40.005Z,20.70
2022-09-26T02:44:37.951Z,20.00
2022-09-26T02:47:04.200Z,19.80
2022-09-26T02:50:08.788Z,20.00
2022-09-26T02:52:52.135Z,21.13
2022-09-26T02:55:26.922Z,27.40
2022-09-26T02:58:23.820Z,22.83
2022-09-26T03:01:14.983Z,29.67
2022-09-26T03:03:51.821Z,28.40
2022-09-26T03:06:34.953Z,25.30
2022-09-26T03:09:02.027Z,25.70
2022-09-26T03:11:30.443Z,26.27
2022-09-26T03:13:58.706Z,29.27
2022-09-26T03:16:29.420Z,25.70
2022-09-26T03:19:01.707Z,24.80
2022-09-26T03:21:28.262Z,24.53
2022-09-26T03:23:56.213Z,23.80
2022-09-26T03:26:25.872Z,23.40
2022-09-26T03:28:53.701Z,26.07
2022-09-26T03:31:22.088Z,34.83
2022-09-26T03:33:49.093Z,27.83
2022-09-26T03:36:15.620Z,30.83
2022-09-26T03:38:42.068Z,29.90
2022-09-26T03:41:09.519Z,30.00
2022-09-26T03:43:36.481Z,30.10
2022-09-26T03:46:04.606Z,32.30
2022-09-26T03:48:31.461Z,28.50
2022-09-26T03:51:06.395Z,34.53
2022-09-26T03:53:33.998Z,32.17
2022-09-26T03:56:10.328Z,30.20
2022-09-26T03:58:37.483Z,33.53
2022-09-26T04:01:08.670Z,31.87
2022-09-26T04:03:36.986Z,27.70
2022-09-26T04:06:04.319Z,31.17
2022-09-26T04:08:31.303Z,33.23
2022-09-26T04:11:04.402Z,27.20
2022-09-26T04:13:50.629Z,30.53
2022-09-26T04:16:20.383Z,31.33
2022-09-26T04:18:50.188Z,33.90
2022-09-26T04:21:16.896Z,29.83
2022-09-26T04:23:43.981Z,32.77
2022-09-26T04:26:21.738Z,26.73
2022-09-26T04:28:55.223Z,24.10
2022-09-26T04:31:23.173Z,24.80
2022-09-26T04:33:50.870Z,23.87
2022-09-26T04:36:18.240Z,21.70
2022-09-26T04:38:44.573Z,25.23
2022-09-26T04:41:13.747Z,20.00
2022-09-26T04:43:40.584Z,21.40
2022-09-26T04:46:17.178Z,17.80
2022-09-26T04:48:48.020Z,18.30
2022-09-26T04:51:16.676Z,18.20
2022-09-26T04:53:43.720Z,19.10
2022-09-26T04:56:12.156Z,18.47
2022-09-26T04:58:39.097Z,17.67
2022-09-26T05:01:07.944Z,19.13
2022-09-26T05:03:37.161Z,16.03
2022-09-26T05:06:07.157Z,17.17
2022-09-26T05:08:33.667Z,17.53
2022-09-26T05:11:01.372Z,19.87
2022-09-26T05:13:28.795Z,14.43
2022-09-26T05:15:55.673Z,18.40
2022-09-26T05:18:29.071Z,22.17
2022-09-26T05:20:57.315Z,16.70
2022-09-26T05:23:45.431Z,15.57
2022-09-26T05:26:40.294Z,18.53
2022-09-26T05:29:08.883Z,15.43
2022-09-26T05:31:37.629Z,14.30
2022-09-26T05:34:05.388Z,21.70
2022-09-26T05:36:31.725Z,18.97
2022-09-26T05:38:58.152Z,22.33
2022-09-26T05:41:31.226Z,14.77
2022-09-26T05:43:58.949Z,23.60
2022-09-26T05:46:27.433Z,14.33
2022-09-26T05:48:55.474Z,17.90
2022-09-26T05:51:22.305Z,19.30
2022-09-26T05:53:49.550Z,19.10
2022-09-26T05:56:19.214Z,21.47
2022-09-26T05:58:45.883Z,20.13
2022-09-26T06:01:15.264Z,17.67
2022-09-26T06:03:43.630Z,16.30
2022-09-26T06:06:16.276Z,20.37
2022-09-26T06:08:42.962Z,20.70
2022-09-26T06:11:17.354Z,17.77
2022-09-26T06:13:45.830Z,17.57
2022-09-26T06:16:17.801Z,13.93
2022-09-26T06:18:45.210Z,17.93
2022-09-26T06:21:13.940Z,19.63
2022-09-26T06:23:40.924Z,20.00
2022-09-26T06:26:09.540Z,22.10
2022-09-26T06:28:36.651Z,19.30
2022-09-26T06:31:15.236Z,23.67
2022-09-26T06:33:41.932Z,21.33
2022-09-26T06:36:10.788Z,20.30
2022-09-26T06:38:37.710Z,23.43
2022-09-26T06:41:04.580Z,19.37
2022-09-26T06:43:31.316Z,21.03
2022-09-26T06:45:57.644Z,19.90
2022-09-26T06:48:25.543Z,19.77
2022-09-26T06:50:56.976Z,19.43
2022-09-26T06:53:23.341Z,21.20
2022-09-26T06:55:49.838Z,20.77
2022-09-26T06:58:16.169Z,18.23
2022-09-26T07:00:42.581Z,16.20
2022-09-26T07:03:09.458Z,15.90
2022-09-26T07:05:35.945Z,16.00
2022-09-26T07:08:02.577Z,13.33
2022-09-26T07:10:34.552Z,14.30
2022-09-26T07:13:04.228Z,13.53
2022-09-26T07:15:33.459Z,17.30
2022-09-26T07:18:02.534Z,12.43
2022-09-26T07:20:32.039Z,15.57
2022-09-26T07:23:06.484Z,10.93
2022-09-26T07:25:33.485Z,13.50
2022-09-26T07:28:01.515Z,16.27
2022-09-26T07:30:28.383Z,13.70
2022-09-26T07:33:03.462Z,13.10
2022-09-26T07:35:35.470Z,19.83
2022-09-26T07:38:02.186Z,16.43
2022-09-26T07:40:28.822Z,17.13
2022-09-26T07:43:18.609Z,16.97
2022-09-26T07:46:04.236Z,14.87
2022-09-26T07:48:49.096Z,18.80
2022-09-26T07:51:16.359Z,16.50
2022-09-26T07:53:42.647Z,16.50
2022-09-26T07:56:10.494Z,17.13
2022-09-26T07:58:39.736Z,18.20
2022-09-26T08:01:11.595Z,16.10
2022-09-26T08:03:43.103Z,15.23
2022-09-26T08:06:10.226Z,19.50
2022-09-26T08:08:36.877Z,16.70
2022-09-26T08:11:04.559Z,17.97
2022-09-26T08:13:32.748Z,20.70
2022-09-26T08:16:06.091Z,20.93
2022-09-26T08:18:33.049Z,14.27
2022-09-26T08:20:59.381Z,19.37
2022-09-26T08:23:25.683Z,16.27
2022-09-26T08:25:52.168Z,16.17
2022-09-26T08:28:18.542Z,12.83
2022-09-26T08:30:45.119Z,15.73
2022-09-26T08:33:12.454Z,19.27
2022-09-26T08:35:39.310Z,11.93
2022-09-26T08:38:07.096Z,16.63
2022-09-26T08:41:02.644Z,19.70
2022-09-26T08:43:29.945Z,15.33
2022-09-26T08:46:38.191Z,12.73
2022-09-26T08:49:28.953Z,16.10
2022-09-26T08:51:58.895Z,13.70
2022-09-26T08:54:42.218Z,13.07
2022-09-26T08:57:31.084Z,13.73
2022-09-26T08:59:58.140Z,13.07
2022-09-26T09:02:41.865Z,11.27
2022-09-26T09:05:17.843Z,13.63
2022-09-26T09:07:49.778Z,10.63
2022-09-26T09:10:19.836Z,10.73
2022-09-26T09:13:23.400Z,10.60
2022-09-26T09:16:08.676Z,12.07
2022-09-26T09:18:59.762Z,18.37
2022-09-26T09:21:32.332Z,11.83
2022-09-26T09:24:38.171Z,13.37
2022-09-26T09:30:21.669Z,13.63
2022-09-26T09:32:56.198Z,12.00
2022-09-26T09:35:38.257Z,21.10
2022-09-26T09:38:07.529Z,10.40
2022-09-26T09:40:43.130Z,14.37
2022-09-26T09:43:27.030Z,9.93
2022-09-26T09:45:59.236Z,9.47
2022-09-26T09:48:28.043Z,22.10
2022-09-26T09:51:14.704Z,10.93
2022-09-26T09:53:55.764Z,12.40
2022-09-26T09:56:51.968Z,15.10
2022-09-26T09:59:26.213Z,13.50
2022-09-26T10:02:12.023Z,8.03
2022-09-26T10:04:44.276Z,11.40
2022-09-26T10:07:10.723Z,8.27
2022-09-26T10:09:43.782Z,7.47
2022-09-26T10:12:20.764Z,9.03
2022-09-26T10:14:56.099Z,9.87
2022-09-26T10:17:23.716Z,9.90
2022-09-26T10:19:50.583Z,9.70
2022-09-26T10:22:37.110Z,13.50
2022-09-26T10:25:15.818Z,12.90
2022-09-26T10:27:50.024Z,9.37
2022-09-26T10:30:19.334Z,10.50
2022-09-26T10:32:56.036Z,8.90
2022-09-26T10:35:29.618Z,8.73
2022-09-26T10:38:00.667Z,11.53
2022-09-26T10:40:48.600Z,10.93
2022-09-26T10:43:33.214Z,10.13
2022-09-26T10:46:13.468Z,11.27
2022-09-26T10:48:48.716Z,9.23
2022-09-26T10:51:32.506Z,7.40
2022-09-26T10:54:04.818Z,10.97
2022-09-26T10:56:37.079Z,10.50
2022-09-26T10:59:10.047Z,7.67
2022-09-26T11:01:43.013Z,9.50
2022-09-26T11:04:39.675Z,6.37
2022-09-26T11:07:09.587Z,9.00
2022-09-26T11:09:38.307Z,10.10
2022-09-26T11:12:26.120Z,8.40
2022-09-26T11:14:56.930Z,9.50
2022-09-26T11:17:44.961Z,7.43
2022-09-26T11:20:39.393Z,12.83
2022-09-26T11:23:30.627Z,11.53
2022-09-26T11:26:11.291Z,9.23
2022-09-26T11:28:47.469Z,11.80
2022-09-26T11:31:28.965Z,10.53
2022-09-26T11:33:59.623Z,13.90
2022-09-26T11:36:46.886Z,8.63
2022-09-26T11:39:23.018Z,6.97
2022-09-26T11:42:07.554Z,7.73
2022-09-26T11:44:53.713Z,9.03
2022-09-26T11:47:42.738Z,10.73
2022-09-26T11:50:24.433Z,6.73
2022-09-26T11:53:15.837Z,5.23
2022-09-26T11:55:54.930Z,5.63
2022-09-26T11:58:39.999Z,6.83
2022-09-26T12:01:38.195Z,8.03
2022-09-26T12:04:40.735Z,10.13
2022-09-26T12:07:17.440Z,5.70
2022-09-26T12:10:26.145Z,7.23
2022-09-26T12:13:12.037Z,8.93
2022-09-26T12:15:55.081Z,6.53
2022-09-26T12:18:59.637Z,6.97
2022-09-26T12:22:08.920Z,8.17
2022-09-26T12:25:07.217Z,6.03
2022-09-26T12:27:51.799Z,9.77
2022-09-26T12:30:23.446Z,6.67
2022-09-26T12:33:21.030Z,5.10
2022-09-26T12:36:01.761Z,4.43
2022-09-26T12:38:39.985Z,3.20
2022-09-26T12:41:31.217Z,6.80
2022-09-26T12:44:42.578Z,5.30
2022-09-26T12:47:28.025Z,6.80
2022-09-26T12:50:12.456Z,6.10
2022-09-26T12:53:27.199Z,5.03
2022-09-26T12:56:10.874Z,6.13
2022-09-26T12:59:13.164Z,4.97
2022-09-26T13:01:49.954Z,2.60
2022-09-26T13:04:34.043Z,3.87
2022-09-26T13:07:24.569Z,5.13
2022-09-26T13:09:58.042Z,6.50
2022-09-26T13:12:51.017Z,3.70
2022-09-26T13:15:44.643Z,4.20
2022-09-26T13:18:17.338Z,3.97
2022-09-26T13:20:49.867Z,3.20
2022-09-26T13:23:21.965Z,3.07
2022-09-26T13:26:03.040Z,5.30
2022-09-26T13:29:00.490Z,7.07
2022-09-26T13:34:07.606Z,10.83
2022-09-26T13:36:34.912Z,4.00
2022-09-26T13:39:16.333Z,4.93
2022-09-26T13:42:02.106Z,2.70
2022-09-26T13:44:37.599Z,7.43
2022-09-26T13:47:19.633Z,4.10
2022-09-26T13:50:01.160Z,7.03
2022-09-26T13:52:30.377Z,2.23
2022-09-26T13:55:02.994Z,3.27
2022-09-26T13:57:46.643Z,2.97
2022-09-26T14:00:16.958Z,3.60
2022-09-26T14:03:18.510Z,2.50
2022-09-26T14:05:45.851Z,3.07
2022-09-26T14:08:43.155Z,5.10
2022-09-26T14:11:24.691Z,2.70
2022-09-26T14:14:16.768Z,6.67
2022-09-26T14:16:47.916Z,3.47
2022-09-26T14:19:15.587Z,3.50
2022-09-26T14:22:06.186Z,4.30
2022-09-26T14:24:41.517Z,2.97
2022-09-26T14:27:14.142Z,3.50
2022-09-26T14:29:44.760Z,2.83
2022-09-26T14:32:17.321Z,3.87
2022-09-26T14:34:49.017Z,4.20
2022-09-26T14:37:24.254Z,5.57
2022-09-26T14:40:00.029Z,4.03
2022-09-26T14:42:52.700Z,6.27
2022-09-26T14:45:22.112Z,6.00
2022-09-26T14:48:19.183Z,5.03
2022-09-26T14:51:19.653Z,10.13
2022-09-26T14:53:49.185Z,4.93
2022-09-26T14:56:35.055Z,5.57
2022-09-26T14:59:16.262Z,6.23
2022-09-26T15:01:44.314Z,5.67
2022-09-26T15:04:27.314Z,6.23
2022-09-26T15:07:02.320Z,7.00
2022-09-26T15:09:45.037Z,5.07
2022-09-26T15:12:21.166Z,5.97
2022-09-26T15:14:54.038Z,5.90
2022-09-26T15:17:29.058Z,9.33
2022-09-26T15:19:58.892Z,7.23
2022-09-26T15:22:29.247Z,5.90
2022-09-26T15:25:15.451Z,11.00
2022-09-26T15:27:47.044Z,5.20
2022-09-26T15:30:19.030Z,4.43
2022-09-26T15:32:49.924Z,8.67
2022-09-26T15:35:16.865Z,13.13
2022-09-26T15:37:43.669Z,8.47
2022-09-26T15:40:22.690Z,8.33
2022-09-26T15:42:59.122Z,5.00
2022-09-26T15:45:50.482Z,6.20
2022-09-26T15:48:20.027Z,7.83
2022-09-26T15:51:07.320Z,4.87
2022-09-26T15:53:37.440Z,6.50
2022-09-26T15:56:36.553Z,6.93
2022-09-26T15:59:28.148Z,5.77
2022-09-26T16:01:55.314Z,6.83
2022-09-26T16:04:27.482Z,13.93
2022-09-26T16:06:58.235Z,4.70
2022-09-26T16:09:33.410Z,5.80
2022-09-26T16:12:03.408Z,6.53
2022-09-26T16:14:43.568Z,11.97
2022-09-26T16:17:27.668Z,3.90
2022-09-26T16:19:56.765Z,6.70
2022-09-26T16:22:49.237Z,3.40
2022-09-26T16:25:15.481Z,2.93
2022-09-26T16:27:42.280Z,5.10
2022-09-26T16:30:23.708Z,5.63
2022-09-26T16:33:15.171Z,6.37
2022-09-26T16:35:47.291Z,9.17
2022-09-26T16:38:22.948Z,6.13
2022-09-26T16:40:52.308Z,14.10
2022-09-26T16:43:32.027Z,9.13
2022-09-26T16:46:13.597Z,5.57
2022-09-26T16:49:02.310Z,6.07
2022-09-26T16:51:36.339Z,4.20
2022-09-26T16:54:08.376Z,6.33
2022-09-26T16:56:38.961Z,4.63
2022-09-26T16:59:37.661Z,4.40
2022-09-26T17:02:04.111Z,5.90
2022-09-26T17:04:35.909Z,6.10
2022-09-26T17:07:09.705Z,6.67
2022-09-26T17:09:36.820Z,10.00
2022-09-26T17:12:06.647Z,8.53
2022-09-26T17:14:40.773Z,6.87
2022-09-26T17:17:15.976Z,7.77
2022-09-26T17:19:45.228Z,7.70
2022-09-26T17:22:17.937Z,9.40
2022-09-26T17:24:44.982Z,5.60
2022-09-26T17:27:23.579Z,14.27
2022-09-26T17:29:51.870Z,8.57
2022-09-26T17:32:29.845Z,12.77
2022-09-26T17:34:59.797Z,9.27
2022-09-26T17:37:27.224Z,6.80
2022-09-26T17:39:55.173Z,8.47
2022-09-26T17:42:22.701Z,12.90
2022-09-26T17:44:49.012Z,8.97
2022-09-26T17:47:16.506Z,11.50
2022-09-26T17:49:46.207Z,8.67
2022-09-26T17:52:25.806Z,8.40
2022-09-26T17:54:55.732Z,6.40
2022-09-26T17:57:24.508Z,7.33
2022-09-26T17:59:54.025Z,9.70
2022-09-26T18:02:24.282Z,16.80
2022-09-26T18:04:53.770Z,7.30
2022-09-26T18:07:22.295Z,6.97
2022-09-26T18:09:51.956Z,10.40
2022-09-26T18:12:22.561Z,5.50
2022-09-26T18:14:51.003Z,7.83
2022-09-26T18:17:18.494Z,5.87
2022-09-26T18:19:45.406Z,5.77
2022-09-26T18:22:16.954Z,4.97
2022-09-26T18:24:47.000Z,9.03
2022-09-26T18:27:15.822Z,6.03
2022-09-26T18:29:44.478Z,7.20
2022-09-26T18:32:25.824Z,15.83
2022-09-26T18:34:52.344Z,6.40
2022-09-26T18:37:18.664Z,9.67
2022-09-26T18:39:45.195Z,6.43
2022-09-26T18:42:17.258Z,5.30
2022-09-26T18:44:51.215Z,5.20
2022-09-26T18:47:17.850Z,8.00
2022-09-26T18:49:53.388Z,6.50
2022-09-26T18:52:22.291Z,6.57
2022-09-26T18:55:10.682Z,7.40
2022-09-26T18:57:55.572Z,4.27
2022-09-26T19:00:28.826Z,3.60
2022-09-26T19:02:56.992Z,2.80
2022-09-26T19:05:23.533Z,5.50
2022-09-26T19:07:50.512Z,5.57
2022-09-26T19:10:19.910Z,8.90
2022-09-26T19:12:46.811Z,6.50
2022-09-26T19:15:16.358Z,8.77
2022-09-26T19:17:45.676Z,3.90
2022-09-26T19:20:12.224Z,6.83
2022-09-26T19:22:39.554Z,4.43
2022-09-26T19:25:06.747Z,6.23
2022-09-26T19:27:42.376Z,2.87
2022-09-26T19:30:18.397Z,3.67
2022-09-26T19:32:58.247Z,5.83
2022-09-26T19:35:33.712Z,10.50
2022-09-26T19:38:01.858Z,9.10
2022-09-26T19:40:28.755Z,6.20
2022-09-26T19:42:56.987Z,6.77
2022-09-26T19:45:24.778Z,4.43
2022-09-26T19:47:54.351Z,4.13
2022-09-26T19:50:23.929Z,5.03
2022-09-26T19:52:51.819Z,4.07
2022-09-26T19:55:21.671Z,3.80
2022-09-26T19:57:48.003Z,3.37
2022-09-26T20:00:15.163Z,4.30
2022-09-26T20:02:42.316Z,5.20
2022-09-26T20:05:23.872Z,3.40
2022-09-26T20:07:51.008Z,5.07
2022-09-26T20:10:23.219Z,2.30
2022-09-26T20:12:50.755Z,3.80
2022-09-26T20:15:20.253Z,3.80
2022-09-26T20:17:47.577Z,2.53
2022-09-26T20:20:22.926Z,5.60
2022-09-26T20:22:56.424Z,5.90
2022-09-26T20:25:32.514Z,6.00
2022-09-26T20:28:00.041Z,3.33
2022-09-26T20:30:45.546Z,12.93
2022-09-26T20:33:13.350Z,3.80
2022-09-26T20:35:47.651Z,5.33
2022-09-26T20:38:34.071Z,8.80
2022-09-26T20:41:12.917Z,4.47
2022-09-26T20:43:40.579Z,5.30
2022-09-26T20:46:11.749Z,7.03
2022-09-26T20:48:43.957Z,4.50
2022-09-26T20:51:23.676Z,5.57
2022-09-26T20:53:53.399Z,5.33
2022-09-26T20:56:21.440Z,6.53
2022-09-26T20:58:48.491Z,3.73
2022-09-26T21:01:16.857Z,5.63
2022-09-26T21:03:48.974Z,7.13
2022-09-26T21:06:18.404Z,3.60
2022-09-26T21:08:45.734Z,4.13
2022-09-26T21:11:17.041Z,5.87
2022-09-26T21:13:43.496Z,5.80
2022-09-26T21:16:18.851Z,5.20
2022-09-26T21:21:32.901Z,4.67
2022-09-26T21:24:20.487Z,5.70
2022-09-26T21:26:58.375Z,6.53
2022-09-26T21:29:39.013Z,3.40
2022-09-26T21:32:08.886Z,5.30
2022-09-26T21:34:36.289Z,10.40
2022-09-26T21:37:03.704Z,14.27
2022-09-26T21:39:30.438Z,7.00
2022-09-26T21:42:01.621Z,5.40
2022-09-26T21:44:32.521Z,6.50
2022-09-26T21:46:58.818Z,6.47
2022-09-26T21:49:25.184Z,5.90
2022-09-26T21:51:58.244Z,4.50
2022-09-26T21:54:29.650Z,4.00
2022-09-26T21:57:02.929Z,5.90
2022-09-26T21:59:30.011Z,6.03
2022-09-26T22:01:56.365Z,3.70
2022-09-26T22:04:22.922Z,5.70
2022-09-26T22:06:49.242Z,4.53
2022-09-26T22:09:15.707Z,6.40
2022-09-26T22:11:42.142Z,5.30
2022-09-26T22:14:08.483Z,3.10
2022-09-26T22:16:34.810Z,4.07
2022-09-26T22:19:01.233Z,3.47
2022-09-26T22:21:27.924Z,2.50
2022-09-26T22:23:54.395Z,4.73
2022-09-26T22:26:21.001Z,7.13
2022-09-26T22:28:47.417Z,3.63
2022-09-26T22:31:13.819Z,1.80
2022-09-26T22:33:40.821Z,3.70
2022-09-26T22:36:08.117Z,3.63
2022-09-26T22:38:36.193Z,5.23
2022-09-26T22:41:05.210Z,2.80
2022-09-26T22:43:32.814Z,3.33
2022-09-26T22:46:11.216Z,1.50
2022-09-26T22:48:46.374Z,2.57
2022-09-26T22:51:14.012Z,1.80
2022-09-26T22:53:41.594Z,18.20
2022-09-26T22:56:11.469Z,2.70
2022-09-26T22:58:47.152Z,4.33
2022-09-26T23:01:19.097Z,4.20
2022-09-26T23:03:45.612Z,1.93
2022-09-26T23:06:12.052Z,2.10
2022-09-26T23:08:38.362Z,2.20
2022-09-26T23:11:06.731Z,2.10
2022-09-26T23:13:35.088Z,3.47
2022-09-26T23:16:06.301Z,2.00
2022-09-26T23:18:34.597Z,2.40
2022-09-26T23:21:09.191Z,3.53
2022-09-26T23:23:36.198Z,6.37
2022-09-26T23:26:02.657Z,2.43
2022-09-26T23:28:28.959Z,3.90
2022-09-26T23:30:55.378Z,3.47
2022-09-26T23:33:21.769Z,8.43
2022-09-26T23:35:56.919Z,4.13
2022-09-26T23:38:23.217Z,6.40
2022-09-26T23:40:49.593Z,2.10
2022-09-26T23:43:16.005Z,4.70
2022-09-26T23:45:42.367Z,3.20
2022-09-26T23:48:08.700Z,3.67
2022-09-26T23:50:35.006Z,5.23
2022-09-26T23:53:06.333Z,2.27
2022-09-26T23:55:33.106Z,4.23
2022-09-26T23:57:59.438Z,4.17
